Time;durP1;ratioP1;P1;durP2;ratioP2;P2;SDS_P1;SDS_P2;PMS_P1;PMS_P2;Temp;Humidity;BMP_temperature;BMP_pressure;BME280_temperature;BME280_humidity;BME280_pressure;Samples;Min_cycle;Max_cycle;Signal;HPM_P1;HPM_P2
2022/12/23 00:01:27;;;;;;;39.80;20.40;;;;;;;4.66;94.33;97887.52;2189912;81;20951;-84
2022/12/23 00:04:27;;;;;;;37.73;21.93;;;;;;;4.65;94.76;97884.48;2189946;81;20983;-84
2022/12/23 00:07:27;;;;;;;40.43;21.20;;;;;;;4.62;95.07;97883.55;2190201;81;20968;-84
2022/12/23 00:10:28;;;;;;;36.57;21.20;;;;;;;4.60;95.13;97891.69;2190888;81;20956;-84
2022/12/23 00:16:47;;;;;;;40.70;20.67;;;;;;;4.57;95.71;97898.09;2189948;81;20987;-85
2022/12/23 00:19:48;;;;;;;38.17;21.60;;;;;;;4.55;95.92;97895.90;2190046;81;20983;-84
2022/12/23 00:23:06;;;;;;;40.07;20.97;;;;;;;4.53;96.36;97901.04;2190503;81;21360;-85
2022/12/23 00:26:06;;;;;;;33.30;20.70;;;;;;;4.52;96.50;97897.13;2190914;81;21023;-85
2022/12/23 00:29:07;;;;;;;37.23;21.00;;;;;;;4.50;97.09;97895.80;2190329;81;20974;-85
2022/12/23 00:32:07;;;;;;;38.47;21.37;;;;;;;4.50;97.23;97902.69;2189579;81;20956;-85
2022/12/23 00:35:08;;;;;;;41.23;19.73;;;;;;;4.45;97.33;97912.51;2189893;81;21000;-84
2022/12/23 00:38:08;;;;;;;39.73;20.97;;;;;;;4.42;97.82;97908.57;2189395;81;20976;-85
2022/12/23 00:44:27;;;;;;;38.47;21.37;;;;;;;4.42;97.55;97912.45;2189602;81;21003;-84
2022/12/23 00:50:46;;;;;;;38.30;21.43;;;;;;;4.40;97.95;97919.30;2189520;81;20939;-85
2022/12/23 00:53:47;;;;;;;38.40;21.40;;;;;;;4.38;97.92;97918.39;2189355;81;20964;-84
2022/12/23 00:56:47;;;;;;;36.07;21.00;;;;;;;4.37;98.26;97914.06;2188799;81;20928;-85
2022/12/23 00:59:48;;;;;;;35.47;19.87;;;;;;;4.38;98.71;97913.22;2189141;81;20936;-85
2022/12/23 01:06:06;;;;;;;35.73;20.73;;;;;;;4.39;99.04;97920.55;2190864;81;20983;-84
2022/12/23 01:09:07;;;;;;;37.23;20.20;;;;;;;4.36;98.96;97926.53;2189706;81;20944;-85
2022/12/23 01:12:07;;;;;;;35.27;20.03;;;;;;;4.33;99.06;97926.84;2189731;81;21056;-84
2022/12/23 01:15:07;;;;;;;30.30;19.63;;;;;;;4.29;99.06;97928.49;2190419;81;21334;-83
2022/12/23 01:18:08;;;;;;;29.57;19.10;;;;;;;4.29;99.44;97927.20;2190560;81;20945;-84
2022/12/23 01:21:09;;;;;;;30.10;18.03;;;;;;;4.30;99.62;97927.66;2190648;81;20993;-84
2022/12/23 01:24:09;;;;;;;33.63;18.90;;;;;;;4.33;99.67;97934.18;2190542;81;21359;-84
2022/12/23 01:27:09;;;;;;;30.60;17.93;;;;;;;4.32;100.00;97935.02;2190550;81;20984;-85
2022/12/23 01:30:10;;;;;;;26.33;15.30;;;;;;;4.31;100.00;97935.86;2190741;81;20932;-85
2022/12/23 01:33:10;;;;;;;27.73;16.43;;;;;;;4.33;100.00;97939.34;2190466;81;21012;-84
2022/12/23 01:36:10;;;;;;;26.40;16.97;;;;;;;4.33;100.00;97939.34;2190581;81;21007;-84
2022/12/23 01:39:11;;;;;;;24.53;15.73;;;;;;;4.35;100.00;97937.70;2190700;81;20932;-84
2022/12/23 01:45:30;;;;;;;25.17;14.83;;;;;;;4.35;100.00;97928.66;2190230;81;20971;-83
2022/12/23 01:48:30;;;;;;;26.47;16.40;;;;;;;4.34;100.00;97935.95;2190636;81;20936;-84
2022/12/23 01:51:31;;;;;;;20.70;13.87;;;;;;;4.36;100.00;97932.98;2190322;81;20983;-84
2022/12/23 01:54:31;;;;;;;20.90;15.10;;;;;;;4.39;100.00;97926.59;2190115;81;20925;-84
2022/12/23 01:57:31;;;;;;;21.83;15.07;;;;;;;4.39;100.00;97928.30;2189782;81;21313;-85
2022/12/23 02:03:51;;;;;;;29.63;15.90;;;;;;;4.39;100.00;97929.17;2190317;81;20996;-84
2022/12/23 02:10:10;;;;;;;22.83;13.77;;;;;;;4.46;100.00;97933.63;2191070;81;20979;-83
2022/12/23 02:13:10;;;;;;;20.13;13.73;;;;;;;4.47;100.00;97932.80;2177394;81;21023;-83
2022/12/23 02:16:16;;;;;;;21.00;14.17;;;;;;;4.54;100.00;97930.34;2173733;81;20976;-85
2022/12/23 02:19:17;;;;;;;19.53;14.13;;;;;;;4.58;100.00;97934.73;2173154;81;20928;-84
2022/12/23 02:22:17;;;;;;;20.00;13.70;;;;;;;4.56;100.00;97934.70;2173309;81;20932;-83
2022/12/23 02:25:18;;;;;;;20.23;13.93;;;;;;;4.57;100.00;97947.20;2173439;82;21048;-84
2022/12/23 02:28:18;;;;;;;19.37;13.23;;;;;;;4.55;100.00;97945.00;2173473;81;20948;-84
2022/12/23 02:31:18;;;;;;;27.83;15.47;;;;;;;4.53;100.00;97946.27;2172981;81;20985;-84
2022/12/23 02:34:19;;;;;;;31.80;17.47;;;;;;;4.54;100.00;97941.97;2173204;81;21040;-83
2022/12/23 02:37:19;;;;;;;24.83;15.90;;;;;;;4.54;100.00;97942.84;2173302;81;20973;-84
2022/12/23 02:40:20;;;;;;;31.47;16.97;;;;;;;4.56;100.00;97947.62;2172910;81;20984;-84
2022/12/23 02:43:20;;;;;;;36.97;17.93;;;;;;;4.59;100.00;97950.69;2172677;82;21064;-84
2022/12/23 02:46:20;;;;;;;23.23;16.87;;;;;;;4.62;100.00;97952.05;2173341;81;20961;-84
2022/12/23 02:49:21;;;;;;;23.53;15.97;;;;;;;4.67;100.00;97948.72;2173709;81;20985;-83
2022/12/23 02:52:21;;;;;;;19.67;14.70;;;;;;;4.71;100.00;97953.53;2173021;81;20941;-79
2022/12/23 02:55:22;;;;;;;17.90;14.50;;;;;;;4.73;100.00;97960.89;2173373;81;21051;-83
2022/12/23 02:58:22;;;;;;;19.33;14.33;;;;;;;4.78;100.00;97957.98;2174090;82;21363;-83
2022/12/23 03:01:22;;;;;;;20.67;14.23;;;;;;;4.79;100.00;97954.56;2173886;82;20992;-84
2022/12/23 03:04:23;;;;;;;22.07;15.40;;;;;;;4.77;100.00;97959.70;2173654;81;21328;-84
2022/12/23 03:07:23;;;;;;;23.73;16.80;;;;;;;4.77;100.00;97967.45;2174293;82;21009;-83
2022/12/23 03:10:24;;;;;;;24.03;16.13;;;;;;;4.79;100.00;97968.78;2173692;81;20953;-83
2022/12/23 03:13:24;;;;;;;22.30;16.17;;;;;;;4.76;100.00;97967.00;2186657;81;21028;-83
2022/12/23 03:16:24;;;;;;;26.57;16.83;;;;;;;4.76;100.00;97976.47;2190871;81;21012;-83
2022/12/23 03:19:25;;;;;;;23.97;17.23;;;;;;;4.71;100.00;97976.80;2190516;81;20968;-84
2022/12/23 03:22:25;;;;;;;26.10;18.37;;;;;;;4.70;100.00;97984.09;2190657;81;20976;-83
2022/12/23 03:25:26;;;;;;;22.50;16.80;;;;;;;4.69;100.00;97981.06;2189958;81;21014;-84
2022/12/23 03:28:26;;;;;;;23.50;17.13;;;;;;;4.71;100.00;97984.55;2190712;81;20980;-84
2022/12/23 03:31:26;;;;;;;29.93;18.40;;;;;;;4.70;100.00;97984.97;2190459;81;20912;-81
2022/12/23 03:34:27;;;;;;;29.80;18.10;;;;;;;4.68;100.00;97984.06;2190744;81;20952;-83
2022/12/23 03:37:27;;;;;;;28.90;19.30;;;;;;;4.64;100.00;97973.63;2190661;81;20975;-83
2022/12/23 03:40:28;;;;;;;23.30;17.50;;;;;;;4.64;100.00;97973.63;2190782;81;20982;-83
2022/12/23 03:43:28;;;;;;;26.33;17.93;;;;;;;4.65;100.00;97974.08;2190220;81;21047;-84
2022/12/23 03:46:28;;;;;;;25.93;17.00;;;;;;;4.65;100.00;97982.70;2190718;81;21016;-84
2022/12/23 03:49:29;;;;;;;25.43;16.40;;;;;;;4.66;100.00;97981.87;2190625;81;20984;-84
2022/12/23 03:52:29;;;;;;;23.43;17.03;;;;;;;4.68;100.00;97983.20;2190181;81;20999;-83
2022/12/23 03:55:30;;;;;;;21.70;15.70;;;;;;;4.70;100.00;97985.39;2189619;81;20916;-84
2022/12/23 03:58:30;;;;;;;24.50;17.87;;;;;;;4.70;100.00;97986.27;2190085;81;20945;-83
2022/12/23 04:01:30;;;;;;;21.17;17.27;;;;;;;4.69;100.00;97978.48;2190291;81;20960;-83
2022/12/23 04:04:33;;;;;;;27.63;18.77;;;;;;;4.69;100.00;97979.34;2190664;81;21011;-83
2022/12/23 04:07:34;;;;;;;26.80;19.30;;;;;;;4.70;100.00;97979.80;2190194;81;20983;-83
2022/12/23 04:10:36;;;;;;;26.87;19.07;;;;;;;4.70;100.00;97979.80;2190459;81;20979;-84
2022/12/23 04:13:37;;;;;;;25.77;18.97;;;;;;;4.73;100.00;97978.99;2176926;81;21379;-83
2022/12/23 04:16:37;;;;;;;24.80;17.40;;;;;;;4.75;100.00;97978.60;2173837;81;20960;-83
2022/12/23 04:19:37;;;;;;;21.53;16.90;;;;;;;4.79;100.00;97984.30;2173789;81;20996;-83
2022/12/23 04:22:38;;;;;;;21.17;15.77;;;;;;;4.78;100.00;97983.42;2173359;81;20941;-84
2022/12/23 04:25:38;;;;;;;18.40;14.40;;;;;;;4.78;100.00;97982.13;2174004;82;21056;-83
2022/12/23 04:28:39;;;;;;;19.20;15.87;;;;;;;4.78;100.00;97979.54;2173960;81;20886;-83
2022/12/23 04:31:39;;;;;;;23.27;17.97;;;;;;;4.78;100.00;97965.73;2173601;81;21012;-83
2022/12/23 04:34:42;;;;;;;23.07;17.80;;;;;;;4.76;100.00;97965.71;2174038;81;21003;-82
2022/12/23 04:37:43;;;;;;;25.60;19.63;;;;;;;4.77;100.00;97964.00;2173209;81;21012;-83
2022/12/23 04:40:43;;;;;;;26.03;19.67;;;;;;;4.73;100.00;97969.94;2173608;81;20976;-83
2022/12/23 04:43:43;;;;;;;28.37;21.20;;;;;;;4.72;100.00;97967.78;2172929;82;21435;-84
2022/12/23 04:46:44;;;;;;;28.70;20.57;;;;;;;4.67;100.00;97965.52;2172464;81;21067;-83
2022/12/23 04:49:44;;;;;;;31.67;22.57;;;;;;;4.63;100.00;97961.13;2172753;81;20977;-82
2022/12/23 04:52:45;;;;;;;30.23;22.67;;;;;;;4.60;100.00;97960.19;2172696;81;20944;-84
2022/12/23 04:55:45;;;;;;;32.67;22.83;;;;;;;4.58;100.00;97965.75;2172809;81;21360;-83
2022/12/23 04:58:45;;;;;;;35.33;23.23;;;;;;;4.54;100.00;97969.11;2172594;81;20926;-83
2022/12/23 05:01:46;;;;;;;34.83;24.07;;;;;;;4.53;100.00;97973.41;2173248;81;20928;-84
2022/12/23 05:04:46;;;;;;;35.87;23.97;;;;;;;4.51;100.00;97968.63;2172945;82;21416;-84
2022/12/23 05:07:47;;;;;;;35.33;25.30;;;;;;;4.48;100.00;97973.30;2172383;81;20929;-81
2022/12/23 05:10:47;;;;;;;39.60;26.23;;;;;;;4.44;100.00;97974.50;2171890;81;20952;-83
2022/12/23 05:13:47;;;;;;;39.40;26.17;;;;;;;4.42;100.00;97976.17;2183978;81;21035;-82
2022/12/23 05:16:48;;;;;;;43.20;27.13;;;;;;;4.33;100.00;97971.64;2188646;81;20947;-83
2022/12/23 05:19:48;;;;;;;41.83;27.67;;;;;;;4.28;100.00;97969.38;2188351;81;20992;-83
2022/12/23 05:22:49;;;;;;;42.80;26.97;;;;;;;4.21;100.00;97974.37;2188575;81;20951;-83
2022/12/23 05:25:50;;;;;;;41.73;28.47;;;;;;;4.13;100.00;97979.36;2189065;81;20984;-83
2022/12/23 05:28:49;;;;;;;46.87;30.00;;;;;;;4.08;100.00;97973.21;2188916;81;21355;-83
2022/12/23 05:31:50;;;;;;;44.60;30.10;;;;;;;4.05;100.00;97987.34;2188566;81;20936;-83
2022/12/23 05:34:50;;;;;;;41.70;29.03;;;;;;;4.03;100.00;97976.11;2188565;81;20936;-82
2022/12/23 05:37:51;;;;;;;43.43;28.17;;;;;;;4.02;100.00;97973.07;2188179;81;20897;-82
2022/12/23 05:40:54;;;;;;;41.30;28.10;;;;;;;4.05;100.00;97981.77;2188271;81;21447;-83
2022/12/23 05:43:54;;;;;;;41.80;26.27;;;;;;;4.06;100.00;97983.92;2188762;81;20988;-82
2022/12/23 05:46:55;;;;;;;43.27;27.73;;;;;;;4.06;100.00;97978.34;2188471;81;20956;-81
2022/12/23 05:49:55;;;;;;;39.93;27.57;;;;;;;4.09;100.00;97982.70;2187431;81;20964;-82
2022/12/23 05:52:56;;;;;;;44.37;27.77;;;;;;;4.15;100.00;97985.02;2187019;81;21000;-82
2022/12/23 05:55:56;;;;;;;42.07;28.73;;;;;;;4.13;100.00;97976.77;2187890;81;20979;-83
2022/12/23 05:58:56;;;;;;;39.60;27.40;;;;;;;4.10;100.00;97984.45;2188004;81;21020;-82
2022/12/23 06:01:57;;;;;;;45.40;28.77;;;;;;;4.06;100.00;97989.09;2188095;81;20909;-82
2022/12/23 06:04:57;;;;;;;42.73;29.63;;;;;;;3.99;100.00;97993.66;2187830;81;20963;-82
2022/12/23 06:07:58;;;;;;;48.00;31.60;;;;;;;3.92;100.00;97999.09;2188282;81;21747;-82
2022/12/23 06:10:58;;;;;;;41.43;29.43;;;;;;;3.83;100.00;98001.45;2188654;81;20924;-82
2022/12/23 06:13:58;;;;;;;42.47;28.10;;;;;;;3.73;100.00;98005.51;2176763;81;21015;-83
2022/12/23 06:16:59;;;;;;;51.30;32.60;;;;;;;3.69;100.00;98010.14;2172216;81;20972;-82
2022/12/23 06:19:59;;;;;;;46.30;29.50;;;;;;;3.65;100.00;98002.28;2171658;81;20977;-82
2022/12/23 06:23:00;;;;;;;47.53;32.67;;;;;;;3.63;100.00;98012.98;2171842;81;20940;-82
2022/12/23 06:26:00;;;;;;;47.73;30.93;;;;;;;3.59;100.00;98010.73;2171095;81;21507;-82
2022/12/23 06:29:01;;;;;;;45.97;29.77;;;;;;;3.57;100.00;98009.83;2171482;81;20913;-82
2022/12/23 06:32:01;;;;;;;45.60;29.90;;;;;;;3.60;100.00;98025.80;2171386;81;20973;-82
2022/12/23 06:35:01;;;;;;;41.77;29.93;;;;;;;3.61;100.00;98027.13;2171196;81;20938;-82
2022/12/23 06:38:02;;;;;;;45.47;31.27;;;;;;;3.65;100.00;98030.25;2171348;81;21009;-82
2022/12/23 06:41:02;;;;;;;46.23;31.63;;;;;;;3.68;100.00;98018.72;2171853;81;21340;-83
2022/12/23 06:44:02;;;;;;;47.27;31.50;;;;;;;3.70;100.00;98020.05;2170972;81;20956;-82
2022/12/23 06:47:03;;;;;;;49.73;33.53;;;;;;;3.70;100.00;98016.17;2170954;81;20967;-83
2022/12/23 06:50:03;;;;;;;46.33;30.37;;;;;;;3.70;100.00;98014.47;2171332;81;20948;-82
2022/12/23 06:53:03;;;;;;;45.03;29.80;;;;;;;3.71;100.00;98013.63;2171923;81;21001;-82
2022/12/23 06:56:04;;;;;;;43.97;28.80;;;;;;;3.71;100.00;98005.89;2171202;81;20985;-82
2022/12/23 06:59:04;;;;;;;43.20;27.70;;;;;;;3.71;100.00;98003.72;2171112;81;21001;-82
2022/12/23 07:02:05;;;;;;;40.17;28.70;;;;;;;3.75;100.00;98004.25;2170944;82;20976;-83
2022/12/23 07:05:05;;;;;;;48.07;30.13;;;;;;;3.77;100.00;98000.88;2170836;81;21806;-82
2022/12/23 07:08:06;;;;;;;49.43;31.67;;;;;;;3.81;100.00;97996.66;2171047;81;20937;-83
2022/12/23 07:11:07;;;;;;;57.33;36.33;;;;;;;3.88;100.00;97995.11;2171535;81;20934;-82
2022/12/23 07:14:06;;;;;;;42.77;29.50;;;;;;;3.93;100.00;97989.63;2182455;81;21027;-83
2022/12/23 07:17:07;;;;;;;38.00;27.10;;;;;;;3.96;100.00;97988.42;2187700;81;20940;-82
2022/12/23 07:20:07;;;;;;;46.77;29.80;;;;;;;3.95;100.00;97982.80;2187974;81;20936;-82
2022/12/23 07:23:07;;;;;;;40.83;28.07;;;;;;;3.94;100.00;97975.89;2187734;81;20979;-83
2022/12/23 07:26:08;;;;;;;44.83;31.50;;;;;;;3.95;100.00;97977.64;2187190;81;21004;-82
2022/12/23 07:29:08;;;;;;;48.40;33.00;;;;;;;4.00;100.00;97983.36;2187900;81;20976;-82
2022/12/23 07:32:09;;;;;;;43.60;29.50;;;;;;;4.12;100.00;97981.48;2187408;81;20993;-83
2022/12/23 07:35:11;;;;;;;44.70;29.77;;;;;;;4.15;100.00;97980.27;2170214;81;20932;-83
2022/12/23 07:38:11;;;;;;;50.30;30.53;;;;;;;4.18;100.00;97967.42;2188103;81;21485;-83
2022/12/23 07:41:12;;;;;;;54.47;35.00;;;;;;;4.21;100.00;97975.23;2187701;81;20940;-81
2022/12/23 07:44:12;;;;;;;55.07;36.70;;;;;;;4.25;100.00;97969.30;2187326;81;20995;-83
2022/12/23 07:47:14;;;;;;;43.40;28.70;;;;;;;4.30;100.00;97966.83;2188354;81;21044;-81
2022/12/23 07:50:13;;;;;;;47.17;29.33;;;;;;;4.36;100.00;97960.11;2188072;81;20987;-81
2022/12/23 07:53:13;;;;;;;50.33;31.97;;;;;;;4.42;100.00;97955.50;2187485;81;20971;-82
2022/12/23 07:56:14;;;;;;;53.30;34.37;;;;;;;4.46;100.00;97950.43;2188237;81;20936;-83
2022/12/23 07:59:14;;;;;;;50.13;31.50;;;;;;;4.49;100.00;97952.20;2188667;81;20961;-83
2022/12/23 08:02:14;;;;;;;53.67;33.60;;;;;;;4.52;100.00;97961.32;2188863;81;20944;-82
2022/12/23 08:05:15;;;;;;;50.43;33.47;;;;;;;4.62;100.00;97960.67;2187626;81;21493;-83
2022/12/23 08:08:15;;;;;;;48.70;32.63;;;;;;;4.67;99.94;97963.36;2187774;81;20984;-83
2022/12/23 08:11:16;;;;;;;46.50;30.63;;;;;;;4.74;99.67;97967.81;2187740;81;21345;-82
2022/12/23 08:14:16;;;;;;;45.03;30.13;;;;;;;4.81;99.21;97968.39;2187725;81;21087;-82
2022/12/23 08:17:16;;;;;;;43.83;28.23;;;;;;;4.86;98.97;97963.31;2188016;81;20912;-82
2022/12/23 08:20:17;;;;;;;40.37;27.17;;;;;;;4.92;98.92;97963.01;2187947;81;21296;-82
2022/12/23 08:23:17;;;;;;;37.67;24.67;;;;;;;5.01;98.72;97950.26;2188195;81;21008;-83
2022/12/23 08:26:18;;;;;;;40.77;25.53;;;;;;;5.08;98.39;97946.95;2187961;81;21260;-82
2022/12/23 08:29:18;;;;;;;41.23;27.47;;;;;;;5.17;98.30;97945.38;2187974;81;21411;-82
2022/12/23 08:32:18;;;;;;;36.40;25.03;;;;;;;5.25;97.95;97949.01;2188136;81;20932;-85
2022/12/23 08:35:19;;;;;;;39.67;24.63;;;;;;;5.31;97.78;97938.77;2189480;81;21028;-85
2022/12/23 08:38:19;;;;;;;33.43;21.77;;;;;;;5.39;98.25;97943.23;2188820;81;20955;-84
2022/12/23 08:41:20;;;;;;;30.93;21.13;;;;;;;5.48;97.77;97937.34;2189315;81;20971;-84
2022/12/23 08:44:20;;;;;;;29.90;19.57;;;;;;;5.55;97.56;97937.03;2188657;81;21007;-85
2022/12/23 08:47:20;;;;;;;28.70;18.67;;;;;;;5.64;97.43;97939.77;2188364;81;20975;-84
2022/12/23 08:50:21;;;;;;;25.70;18.40;;;;;;;5.72;96.99;97939.05;2188990;81;20971;-83
2022/12/23 08:53:21;;;;;;;22.93;17.17;;;;;;;5.80;96.87;97928.82;2188443;81;20983;-84
2022/12/23 08:56:22;;;;;;;29.87;19.97;;;;;;;5.89;96.59;97931.98;2188780;81;20964;-83
2022/12/23 08:59:22;;;;;;;28.23;19.83;;;;;;;5.94;96.40;97922.59;2188426;81;21336;-83
2022/12/23 09:02:22;;;;;;;31.70;20.93;;;;;;;6.01;96.27;97917.95;2188188;81;21328;-84
2022/12/23 09:05:23;;;;;;;31.00;21.30;;;;;;;6.10;96.10;97912.94;2187133;81;20944;-81
2022/12/23 09:08:23;;;;;;;28.00;18.97;;;;;;;6.18;95.64;97911.75;2187665;81;20948;-83
2022/12/23 09:11:24;;;;;;;22.63;16.70;;;;;;;6.23;95.20;97909.67;2187284;81;21408;-79
2022/12/23 09:14:24;;;;;;;24.43;16.83;;;;;;;6.27;95.04;97903.68;2178115;81;21023;-81
2022/12/23 09:17:24;;;;;;;23.77;17.37;;;;;;;6.36;95.13;97900.34;2171376;81;20968;-81
2022/12/23 09:20:25;;;;;;;21.83;17.00;;;;;;;6.50;95.20;97894.91;2169944;81;21719;-82
2022/12/23 09:23:25;;;;;;;19.53;15.43;;;;;;;6.56;94.87;97889.80;2169228;81;20969;-79
2022/12/23 09:26:26;;;;;;;20.13;14.20;;;;;;;6.66;94.99;97885.17;2169164;81;20972;-81
2022/12/23 09:29:26;;;;;;;20.87;13.40;;;;;;;6.75;94.73;97891.31;2169748;81;20937;-82
2022/12/23 09:32:26;;;;;;;18.27;13.47;;;;;;;6.79;94.36;97882.72;2169925;81;20940;-82
2022/12/23 09:35:27;;;;;;;15.17;11.10;;;;;;;6.90;94.58;97878.52;2170939;81;20929;-81
2022/12/23 09:38:27;;;;;;;15.50;11.07;;;;;;;7.02;94.58;97880.84;2170852;81;21418;-82
2022/12/23 09:41:28;;;;;;;18.67;10.90;;;;;;;7.13;94.17;97876.19;2170879;81;20968;-82
2022/12/23 09:44:28;;;;;;;17.30;12.03;;;;;;;7.22;93.96;97871.96;2170377;81;21013;-81
2022/12/23 09:47:28;;;;;;;18.40;11.60;;;;;;;7.32;93.86;97867.73;2170262;81;20976;-82
2022/12/23 09:50:29;;;;;;;15.43;10.87;;;;;;;7.36;93.11;97869.49;2170527;81;21386;-81
2022/12/23 09:53:29;;;;;;;16.57;11.37;;;;;;;7.32;93.12;97868.59;2170701;81;20936;-81
2022/12/23 09:56:30;;;;;;;16.53;10.30;;;;;;;7.28;93.00;97868.13;2170958;81;21016;-80
2022/12/23 09:59:30;;;;;;;17.67;11.30;;;;;;;7.24;92.99;97864.19;2171334;81;21324;-81
2022/12/23 10:02:30;;;;;;;16.70;11.20;;;;;;;7.16;93.05;97871.03;2171224;81;20984;-82
2022/12/23 10:05:31;;;;;;;17.60;11.37;;;;;;;7.07;93.36;97862.73;2171467;81;21004;-82
2022/12/23 10:08:31;;;;;;;17.57;10.57;;;;;;;7.05;93.41;97864.87;2171654;81;20960;-82
2022/12/23 10:11:32;;;;;;;15.20;11.17;;;;;;;7.07;93.62;97860.56;2171444;82;20909;-80
2022/12/23 10:14:32;;;;;;;13.53;10.20;;;;;;;7.07;93.73;97856.24;2179882;81;21044;-82
2022/12/23 10:17:32;;;;;;;18.00;11.37;;;;;;;7.16;93.73;97858.92;2187855;81;20941;-81
2022/12/23 10:20:33;;;;;;;14.53;11.00;;;;;;;7.30;93.30;97851.27;2188265;81;20973;-80
2022/12/23 10:23:33;;;;;;;18.73;11.53;;;;;;;7.40;93.20;97850.92;2188021;81;20967;-82
2022/12/23 10:26:34;;;;;;;18.77;11.00;;;;;;;7.47;92.74;97850.98;2188146;81;21007;-81
2022/12/23 10:29:34;;;;;;;18.10;11.80;;;;;;;7.52;92.23;97851.89;2188634;81;20996;-82
2022/12/23 10:32:34;;;;;;;16.30;10.20;;;;;;;7.57;92.20;97846.73;2188655;81;20936;-81
2022/12/23 10:35:35;;;;;;;19.47;10.90;;;;;;;7.62;91.59;97838.55;2188206;81;21688;-81
2022/12/23 10:38:35;;;;;;;18.00;10.13;;;;;;;7.72;91.37;97840.78;2188856;81;20992;-82
2022/12/23 10:41:37;;;;;;;19.13;10.13;;;;;;;7.82;90.24;97845.20;2188809;81;20920;-83
2022/12/23 10:44:36;;;;;;;17.67;10.90;;;;;;;7.90;90.70;97843.10;2188224;81;21010;-80
2022/12/23 10:47:39;;;;;;;16.00;10.23;;;;;;;7.95;90.58;97845.30;2187168;81;20936;-82
2022/12/23 10:50:44;;;;;;;18.17;10.83;;;;;;;7.93;89.78;97844.42;2187728;81;21334;-81
2022/12/23 10:53:40;;;;;;;17.37;9.87;;;;;;;7.90;90.10;97840.93;2188113;81;20980;-82
2022/12/23 10:56:41;;;;;;;20.10;10.43;;;;;;;7.80;90.46;97836.11;2188298;81;20940;-81
2022/12/23 10:59:41;;;;;;;21.40;10.67;;;;;;;7.68;90.51;97834.69;2188584;81;20984;-81
2022/12/23 11:02:41;;;;;;;18.57;10.83;;;;;;;7.61;90.97;97830.31;2188432;81;20928;-80
2022/12/23 11:05:42;;;;;;;17.10;11.00;;;;;;;7.57;91.28;97826.82;2187806;81;20951;-80
2022/12/23 11:08:42;;;;;;;18.70;11.13;;;;;;;7.53;91.25;97828.95;2187496;81;21404;-81
2022/12/23 11:11:43;;;;;;;15.90;10.13;;;;;;;7.50;91.47;97829.36;2187251;81;20928;-80
2022/12/23 11:14:43;;;;;;;19.63;11.33;;;;;;;7.46;91.69;97832.36;2177993;81;20969;-80
2022/12/23 11:17:43;;;;;;;20.00;11.80;;;;;;;7.45;91.93;97827.16;2169519;81;21351;-82
2022/12/23 11:20:44;;;;;;;19.33;12.73;;;;;;;7.44;92.26;97828.88;2168847;81;20933;-80
2022/12/23 11:23:44;;;;;;;17.33;12.07;;;;;;;7.44;92.26;97817.20;2168611;81;20917;-79
2022/12/23 11:26:45;;;;;;;19.93;11.87;;;;;;;7.42;92.38;97815.45;2169199;82;21004;-80
2022/12/23 11:29:45;;;;;;;22.53;12.60;;;;;;;7.36;92.52;97818.87;2169557;81;21344;-80
2022/12/23 11:32:45;;;;;;;18.77;11.37;;;;;;;7.31;92.70;97818.83;2170332;81;20993;-81
2022/12/23 11:35:46;;;;;;;21.13;11.83;;;;;;;7.29;93.00;97818.38;2170928;82;20941;-81
2022/12/23 11:38:46;;;;;;;23.83;12.77;;;;;;;7.30;93.48;97813.63;2171827;81;21000;-82
2022/12/23 11:41:47;;;;;;;20.30;11.40;;;;;;;7.29;93.63;97810.59;2172537;81;20933;-81
2022/12/23 11:44:47;;;;;;;18.33;11.67;;;;;;;7.30;93.68;97805.41;2171821;81;20988;-81
2022/12/23 11:47:47;;;;;;;19.93;10.60;;;;;;;7.29;93.68;97805.39;2172746;82;21020;-82
2022/12/23 11:50:48;;;;;;;18.63;12.03;;;;;;;7.29;93.97;97809.29;2172202;81;21616;-82
2022/12/23 11:53:48;;;;;;;21.83;11.47;;;;;;;7.29;94.07;97809.29;2171513;81;20937;-83
2022/12/23 11:56:49;;;;;;;23.70;11.87;;;;;;;7.31;94.42;97807.58;2171543;81;20985;-82
2022/12/23 11:59:49;;;;;;;22.30;11.77;;;;;;;7.27;94.03;97814.90;2171324;81;20937;-82
2022/12/23 12:02:50;;;;;;;26.87;13.70;;;;;;;7.23;94.33;97815.73;2170369;81;21001;-82
2022/12/23 12:05:50;;;;;;;26.00;13.80;;;;;;;7.22;94.67;97817.88;2170498;81;20952;-82
2022/12/23 12:08:51;;;;;;;23.40;12.87;;;;;;;7.15;94.51;97819.98;2170999;81;20988;-81
2022/12/23 12:11:51;;;;;;;26.17;13.73;;;;;;;7.12;94.82;97826.45;2170728;81;20941;-82
2022/12/23 12:14:51;;;;;;;29.90;14.43;;;;;;;7.09;95.12;97822.09;2170321;82;21044;-80
2022/12/23 12:17:52;;;;;;;27.80;14.07;;;;;;;7.13;95.13;97825.59;2169732;81;20901;-80
2022/12/23 12:20:52;;;;;;;28.70;14.57;;;;;;;7.16;95.07;97823.02;2169397;81;20933;-81
2022/12/23 12:23:53;;;;;;;28.30;13.43;;;;;;;7.20;95.22;97823.06;2170194;81;20940;-82
2022/12/23 12:26:53;;;;;;;28.57;13.97;;;;;;;7.19;95.08;97819.16;2170335;81;21427;-82
2022/12/23 12:29:53;;;;;;;24.03;12.60;;;;;;;7.14;95.13;97828.20;2169973;82;20937;-81
2022/12/23 12:32:54;;;;;;;28.53;12.80;;;;;;;7.10;95.30;97826.86;2171021;81;20936;-84
2022/12/23 12:35:54;;;;;;;27.73;14.60;;;;;;;7.09;95.35;97825.12;2171725;81;20928;-81
2022/12/23 12:38:54;;;;;;;24.70;13.37;;;;;;;7.03;95.45;97822.91;2172353;81;20981;-81
2022/12/23 12:41:55;;;;;;;22.67;12.93;;;;;;;7.01;95.83;97819.43;2171851;81;20972;-84
2022/12/23 12:44:58;;;;;;;23.50;13.10;;;;;;;6.97;95.66;97813.77;2173067;81;21083;-82
2022/12/23 12:47:58;;;;;;;21.53;13.47;;;;;;;6.90;95.90;97816.26;2173706;81;21008;-82
2022/12/23 12:50:59;;;;;;;27.00;15.23;;;;;;;6.86;96.46;97820.55;2174476;81;20941;-81
2022/12/23 12:53:59;;;;;;;22.20;13.73;;;;;;;6.83;96.28;97815.33;2174369;81;20981;-81
2022/12/23 12:57:01;;;;;;;23.83;14.87;;;;;;;6.81;96.36;97817.03;2173960;81;20961;-81
2022/12/23 13:00:01;;;;;;;24.73;14.83;;;;;;;6.77;96.13;97816.56;2174378;81;20956;-81
2022/12/23 13:03:00;;;;;;;21.67;15.43;;;;;;;6.85;97.81;97812.75;2173378;81;21375;-81
2022/12/23 13:06:01;;;;;;;21.87;15.57;;;;;;;6.87;96.71;97817.52;2171973;82;20991;-81
2022/12/23 13:09:01;;;;;;;22.00;14.67;;;;;;;6.91;96.66;97818.87;2171497;81;21001;-82
2022/12/23 13:12:02;;;;;;;25.17;15.07;;;;;;;6.98;96.42;97820.70;2170839;82;21308;-83
2022/12/23 13:15:02;;;;;;;23.20;15.40;;;;;;;7.08;96.54;97816.89;2170723;81;21054;-81
2022/12/23 13:18:02;;;;;;;23.77;16.47;;;;;;;7.08;96.31;97820.36;2169863;81;21376;-83
2022/12/23 13:21:03;;;;;;;21.37;15.03;;;;;;;7.12;96.28;97822.55;2170614;81;21008;-82
2022/12/23 13:24:03;;;;;;;24.90;14.80;;;;;;;7.16;96.45;97819.13;2169772;81;20933;-83
2022/12/23 13:27:04;;;;;;;21.90;15.53;;;;;;;7.20;96.20;97817.88;2169516;81;21007;-84
2022/12/23 13:30:04;;;;;;;23.03;15.50;;;;;;;7.19;96.00;97823.92;2169519;81;20973;-84
2022/12/23 13:33:05;;;;;;;24.47;15.63;;;;;;;7.14;96.20;97823.44;2170304;81;20929;-83
2022/12/23 13:36:05;;;;;;;20.40;14.80;;;;;;;7.08;96.07;97828.57;2169371;81;20965;-82
2022/12/23 13:39:05;;;;;;;27.57;15.17;;;;;;;7.03;96.46;97833.72;2171025;82;20972;-82
2022/12/23 13:42:06;;;;;;;22.07;14.40;;;;;;;7.01;97.67;97831.11;2170534;82;20909;-84
2022/12/23 13:45:06;;;;;;;24.43;15.37;;;;;;;7.04;96.88;97826.38;2169587;81;21013;-85
2022/12/23 13:48:06;;;;;;;22.47;14.70;;;;;;;6.96;96.75;97834.08;2170384;82;20929;-83
2022/12/23 13:51:07;;;;;;;24.40;14.63;;;;;;;6.92;96.91;97837.47;2170752;81;21416;-83
2022/12/23 13:54:07;;;;;;;23.63;14.23;;;;;;;6.87;96.98;97833.09;2170545;81;21028;-82
2022/12/23 13:57:08;;;;;;;24.17;16.17;;;;;;;7.24;100.00;97829.15;2171059;81;21277;-83
2022/12/23 14:00:08;;;;;;;23.27;15.20;;;;;;;7.29;97.50;97836.12;2171869;81;21308;-84
2022/12/23 14:03:10;;;;;;;27.00;15.33;;;;;;;7.18;96.71;97841.64;2171794;81;20988;-84
2022/12/23 14:06:09;;;;;;;23.27;15.60;;;;;;;7.08;96.66;97837.65;2172598;81;21100;-84
2022/12/23 14:09:09;;;;;;;24.13;16.27;;;;;;;6.96;96.50;97831.48;2172793;81;21366;-84
2022/12/23 14:12:10;;;;;;;25.43;15.03;;;;;;;6.87;96.58;97837.84;2173043;81;21037;-83
2022/12/23 14:15:10;;;;;;;24.47;16.13;;;;;;;6.82;96.80;97830.45;2180064;81;21031;-83
2022/12/23 14:18:10;;;;;;;24.10;15.50;;;;;;;6.78;96.90;97834.29;2190329;81;20956;-83